Time;durP1;ratioP1;P1;durP2;ratioP2;P2;SDS_P1;SDS_P2;PMS_P1;PMS_P2;Temp;Humidity;BMP_temperature;BMP_pressure;BME280_temperature;BME280_humidity;BME280_pressure;Samples;Min_cycle;Max_cycle;Signal;HPM_P1;HPM_P2
2023/01/27 00:00:02;;;;;;;;;;;4.40;99.90;;;;;;5054062;28;20061;-73
2023/01/27 00:02:27;;;;;;;;;;;4.40;99.90;;;;;;5050879;28;19917;-74
2023/01/27 00:04:53;;;;;;;;;;;4.40;99.90;;;;;;5054826;28;20269;-74
2023/01/27 00:07:18;;;;;;;;;;;4.40;99.90;;;;;;5051433;28;19917;-74
2023/01/27 00:09:44;;;;;;;;;;;4.50;99.90;;;;;;5053663;28;20358;-74
2023/01/27 00:15:02;;;;;;;;;;;4.50;99.90;;;;;;5043808;28;19917;-73
2023/01/27 00:17:28;;;;;;;;;;;4.50;99.90;;;;;;5051945;28;20307;-73
2023/01/27 00:19:53;;;;;;;;;;;4.50;99.90;;;;;;5036501;28;19921;-74
2023/01/27 00:25:03;;;;;;;;;;;4.40;99.90;;;;;;5067776;28;19917;-74
2023/01/27 00:27:29;;;;;;;;;;;4.40;99.90;;;;;;5052554;28;20007;-74
2023/01/27 00:29:54;;;;;;;;;;;4.40;99.90;;;;;;5053006;28;19917;-74
2023/01/27 00:35:04;;;;;;;;;;;4.30;99.90;;;;;;5068765;28;19916;-73
2023/01/27 00:37:29;;;;;;;;;;;4.40;99.90;;;;;;5036498;28;19938;-74
2023/01/27 00:39:55;;;;;;;;;;;4.40;99.90;;;;;;5052900;28;19916;-74
2023/01/27 00:42:20;;;;;;;;;;;4.40;99.90;;;;;;5052164;28;19916;-74
2023/01/27 00:45:47;;;;;;;;;;;4.40;99.90;;;;;;5050058;28;19952;-74
2023/01/27 00:47:32;;;;;;;;;;;4.40;99.90;;;;;;5051584;28;20351;-74
2023/01/27 00:49:57;;;;;;;;;;;4.40;99.90;;;;;;5035294;28;19924;-74
2023/01/27 00:52:23;;;;;;;;;;;4.40;99.90;;;;;;5051330;28;19923;-74
2023/01/27 00:54:48;;;;;;;;;;;4.40;99.90;;;;;;5051220;28;19917;-74
2023/01/27 00:57:14;;;;;;;;;;;4.40;99.90;;;;;;5035392;28;19924;-74
2023/01/27 00:59:40;;;;;;;;;;;4.30;99.90;;;;;;5052573;28;19916;-74
2023/01/27 01:02:05;;;;;;;;;;;4.30;99.90;;;;;;5051936;28;19916;-74
2023/01/27 01:04:31;;;;;;;;;;;4.40;99.90;;;;;;5052833;28;19917;-74
2023/01/27 01:06:56;;;;;;;;;;;4.40;99.90;;;;;;5052575;28;19916;-74
2023/01/27 01:09:22;;;;;;;;;;;4.40;99.90;;;;;;5052476;28;20034;-74
2023/01/27 01:11:47;;;;;;;;;;;4.40;99.90;;;;;;5051476;28;19925;-74
2023/01/27 01:14:12;;;;;;;;;;;4.40;99.90;;;;;;5051592;28;19959;-74
2023/01/27 01:16:38;;;;;;;;;;;4.40;99.90;;;;;;5034356;28;20016;-74
2023/01/27 01:19:03;;;;;;;;;;;4.40;99.90;;;;;;5034236;28;20285;-74
2023/01/27 01:21:29;;;;;;;;;;;4.30;99.90;;;;;;5034734;28;20376;-74
2023/01/27 01:23:54;;;;;;;;;;;4.30;99.90;;;;;;5051701;28;19923;-74
2023/01/27 01:26:20;;;;;;;;;;;4.30;99.90;;;;;;5052245;28;20380;-74
2023/01/27 01:28:46;;;;;;;;;;;4.30;99.90;;;;;;5052266;28;19917;-74
2023/01/27 01:31:16;;;;;;;;;;;4.30;99.90;;;;;;5051754;28;20373;-74
2023/01/27 01:33:41;;;;;;;;;;;4.30;99.90;;;;;;5035480;28;19916;-74
2023/01/27 01:36:08;;;;;;;;;;;4.30;99.90;;;;;;5052522;28;19966;-74
2023/01/27 01:38:34;;;;;;;;;;;4.30;99.90;;;;;;5051241;28;19917;-74
2023/01/27 01:40:59;;;;;;;;;;;4.30;99.90;;;;;;5051377;28;19923;-74
2023/01/27 01:43:26;;;;;;;;;;;4.30;99.90;;;;;;5051637;28;19916;-74
2023/01/27 01:45:53;;;;;;;;;;;4.40;99.90;;;;;;5052101;28;20395;-74
2023/01/27 01:48:28;;;;;;;;;;;4.40;99.90;;;;;;5050222;28;21499;-74
2023/01/27 01:50:56;;;;;;;;;;;4.30;99.90;;;;;;5051904;28;19929;-74
2023/01/27 01:53:28;;;;;;;;;;;4.30;99.90;;;;;;5051002;28;20373;-74
2023/01/27 01:55:54;;;;;;;;;;;4.30;99.90;;;;;;5051961;28;19966;-74
2023/01/27 01:58:20;;;;;;;;;;;4.30;99.90;;;;;;5052074;28;19956;-74
2023/01/27 02:00:46;;;;;;;;;;;4.30;99.90;;;;;;5051961;28;20407;-74
2023/01/27 02:03:11;;;;;;;;;;;4.40;99.90;;;;;;5051052;28;20395;-74
2023/01/27 02:05:40;;;;;;;;;;;4.30;99.90;;;;;;5053324;28;19982;-74
2023/01/27 02:08:08;;;;;;;;;;;4.40;99.90;;;;;;5055405;28;19916;-74
2023/01/27 02:10:34;;;;;;;;;;;4.40;99.90;;;;;;5055794;28;20388;-74
2023/01/27 02:12:59;;;;;;;;;;;4.40;99.90;;;;;;5054819;28;19917;-74
2023/01/27 02:15:25;;;;;;;;;;;4.40;99.90;;;;;;5054787;28;19917;-74
2023/01/27 02:17:51;;;;;;;;;;;4.40;99.90;;;;;;5038509;28;19924;-73
2023/01/27 02:20:35;;;;;;;;;;;4.40;99.90;;;;;;5038855;28;19927;-74
2023/01/27 02:23:06;;;;;;;;;;;4.50;99.90;;;;;;5024039;28;19971;-74
2023/01/27 02:25:35;;;;;;;;;;;4.50;99.90;;;;;;5035633;28;19917;-74
2023/01/27 02:28:04;;;;;;;;;;;4.50;99.90;;;;;;5035603;28;20381;-74
2023/01/27 02:30:30;;;;;;;;;;;4.50;99.90;;;;;;5035543;28;19921;-74
2023/01/27 02:32:56;;;;;;;;;;;4.50;99.90;;;;;;5047401;28;19923;-74
2023/01/27 02:35:24;;;;;;;;;;;4.50;99.90;;;;;;5049057;28;19924;-74
2023/01/27 02:37:50;;;;;;;;;;;4.50;99.90;;;;;;5039346;28;19946;-74
2023/01/27 02:40:16;;;;;;;;;;;4.50;99.90;;;;;;5026669;28;20381;-74
2023/01/27 02:42:41;;;;;;;;;;;4.60;99.90;;;;;;5039109;28;19917;-74
2023/01/27 02:45:07;;;;;;;;;;;4.60;99.90;;;;;;5052650;28;19917;-74
2023/01/27 02:47:32;;;;;;;;;;;4.60;99.90;;;;;;5037802;28;19923;-74
2023/01/27 02:49:58;;;;;;;;;;;4.50;99.90;;;;;;5053026;28;19943;-74
2023/01/27 02:52:24;;;;;;;;;;;4.50;99.90;;;;;;5037558;28;19989;-74
2023/01/27 02:54:49;;;;;;;;;;;4.40;99.90;;;;;;5053820;28;19956;-74
2023/01/27 02:57:14;;;;;;;;;;;4.50;99.90;;;;;;5054523;28;20293;-74
2023/01/27 02:59:40;;;;;;;;;;;4.50;99.90;;;;;;5053849;28;19916;-75
2023/01/27 03:02:06;;;;;;;;;;;4.50;99.90;;;;;;5054460;28;20308;-74
2023/01/27 03:04:31;;;;;;;;;;;4.50;99.90;;;;;;5036868;28;19916;-74
2023/01/27 03:06:57;;;;;;;;;;;4.50;99.90;;;;;;5052430;28;19917;-74
2023/01/27 03:09:23;;;;;;;;;;;4.40;99.90;;;;;;5037218;28;19946;-74
2023/01/27 03:20:01;;;;;;;;;;;4.60;99.90;;;;;;5070662;28;19921;-74
2023/01/27 03:22:27;;;;;;;;;;;4.60;99.90;;;;;;5037028;28;19943;-74
2023/01/27 03:24:52;;;;;;;;;;;4.60;99.90;;;;;;5052357;28;20300;-74
2023/01/27 03:27:17;;;;;;;;;;;4.50;99.90;;;;;;5054661;28;19960;-74
2023/01/27 03:29:55;;;;;;;;;;;4.50;99.90;;;;;;5049804;28;19923;-74
2023/01/27 03:32:25;;;;;;;;;;;4.50;99.90;;;;;;5036142;28;19995;-75
2023/01/27 03:34:50;;;;;;;;;;;4.50;99.90;;;;;;5051718;28;20349;-74
2023/01/27 03:48:13;;;;;;;;;;;4.40;99.90;;;;;;5069816;28;20361;-75
2023/01/27 03:50:42;;;;;;;;;;;4.40;99.90;;;;;;5052903;28;19921;-74
2023/01/27 03:53:08;;;;;;;;;;;4.40;99.90;;;;;;5052618;28;19975;-74
2023/01/27 03:55:34;;;;;;;;;;;4.40;99.90;;;;;;5036366;28;19917;-75
2023/01/27 03:58:16;;;;;;;;;;;4.40;99.90;;;;;;5035921;28;20292;-75
2023/01/27 04:00:42;;;;;;;;;;;4.30;99.90;;;;;;5052813;28;20377;-74
2023/01/27 04:08:36;;;;;;;;;;;4.40;99.90;;;;;;5051448;28;19917;-74
2023/01/27 04:13:46;;;;;;;;;;;4.40;99.90;;;;;;5067986;28;20392;-74
2023/01/27 04:16:11;;;;;;;;;;;4.30;99.90;;;;;;5053460;28;19923;-74
2023/01/27 04:18:37;;;;;;;;;;;4.40;99.90;;;;;;5067616;28;19987;-75
2023/01/27 04:21:03;;;;;;;;;;;4.30;99.90;;;;;;5052434;28;19917;-74
2023/01/27 04:23:28;;;;;;;;;;;4.20;99.90;;;;;;5050825;28;19916;-75
2023/01/27 04:25:55;;;;;;;;;;;4.30;99.90;;;;;;5053517;28;19948;-74
2023/01/27 04:28:21;;;;;;;;;;;4.20;99.90;;;;;;5033534;28;20003;-75
2023/01/27 04:30:46;;;;;;;;;;;4.20;99.90;;;;;;5036511;28;20354;-74
2023/01/27 04:33:14;;;;;;;;;;;4.20;99.90;;;;;;5035694;28;20331;-75
2023/01/27 04:35:43;;;;;;;;;;;4.20;99.90;;;;;;5036303;28;19916;-74
2023/01/27 04:38:09;;;;;;;;;;;4.20;99.90;;;;;;5034465;28;20015;-74
2023/01/27 04:40:34;;;;;;;;;;;4.30;99.90;;;;;;5052043;28;20293;-74
2023/01/27 04:43:00;;;;;;;;;;;4.20;99.90;;;;;;5052362;28;19917;-74
2023/01/27 04:45:25;;;;;;;;;;;4.20;99.90;;;;;;5035631;28;19917;-74
2023/01/27 04:47:51;;;;;;;;;;;4.20;99.90;;;;;;5035075;28;19948;-74
2023/01/27 04:50:16;;;;;;;;;;;4.20;99.90;;;;;;5050937;28;19950;-74
2023/01/27 04:52:44;;;;;;;;;;;4.20;99.90;;;;;;5068183;28;20367;-74
2023/01/27 04:55:09;;;;;;;;;;;4.20;99.90;;;;;;5034406;28;19916;-74
2023/01/27 04:57:35;;;;;;;;;;;4.20;99.90;;;;;;5052927;28;20034;-74
2023/01/27 05:00:01;;;;;;;;;;;4.20;99.90;;;;;;5050659;28;19923;-75
2023/01/27 05:02:27;;;;;;;;;;;4.20;99.90;;;;;;5052852;28;19962;-75
2023/01/27 05:04:53;;;;;;;;;;;4.20;99.90;;;;;;5050829;28;20361;-75
2023/01/27 05:07:18;;;;;;;;;;;4.20;99.90;;;;;;5052590;28;19920;-74
2023/01/27 05:09:44;;;;;;;;;;;4.20;99.90;;;;;;5051160;28;19917;-74
2023/01/27 05:12:09;;;;;;;;;;;4.20;99.90;;;;;;5052361;28;20410;-74
2023/01/27 05:14:34;;;;;;;;;;;4.10;99.90;;;;;;5051755;28;19916;-74
2023/01/27 05:17:00;;;;;;;;;;;4.10;99.90;;;;;;5034252;28;20300;-74
2023/01/27 05:19:25;;;;;;;;;;;4.20;99.90;;;;;;5049186;28;19927;-75
2023/01/27 05:21:51;;;;;;;;;;;4.10;99.90;;;;;;5052351;28;19925;-75
2023/01/27 05:24:16;;;;;;;;;;;4.10;99.90;;;;;;5051440;28;19917;-75
2023/01/27 05:26:42;;;;;;;;;;;4.20;99.90;;;;;;5051431;28;19916;-75
2023/01/27 05:29:08;;;;;;;;;;;4.10;99.90;;;;;;5050855;28;20316;-75
2023/01/27 05:31:33;;;;;;;;;;;4.10;99.90;;;;;;5051194;28;19921;-75
2023/01/27 05:33:59;;;;;;;;;;;4.10;99.90;;;;;;5035489;28;19966;-75
2023/01/27 05:36:25;;;;;;;;;;;4.20;99.90;;;;;;5033375;28;19923;-75
2023/01/27 05:38:51;;;;;;;;;;;4.10;99.90;;;;;;5034921;28;19917;-75
2023/01/27 05:41:17;;;;;;;;;;;4.10;99.90;;;;;;5053992;28;19917;-75
2023/01/27 05:43:44;;;;;;;;;;;4.10;99.90;;;;;;5055167;28;20453;-75
2023/01/27 05:46:14;;;;;;;;;;;4.10;99.90;;;;;;5039679;28;20372;-75
2023/01/27 05:48:41;;;;;;;;;;;4.10;99.90;;;;;;5036707;28;19924;-75
2023/01/27 05:51:07;;;;;;;;;;;4.10;99.90;;;;;;5054760;28;19921;-75
2023/01/27 05:53:33;;;;;;;;;;;4.10;99.90;;;;;;5055614;28;19916;-75
2023/01/27 05:55:59;;;;;;;;;;;4.10;99.90;;;;;;5039526;28;19927;-75
2023/01/27 05:58:24;;;;;;;;;;;4.00;99.90;;;;;;5035623;28;19917;-75
2023/01/27 06:00:50;;;;;;;;;;;4.10;99.90;;;;;;5053732;28;19916;-75
2023/01/27 06:03:16;;;;;;;;;;;4.10;99.90;;;;;;5055190;28;20315;-75
2023/01/27 06:05:51;;;;;;;;;;;4.00;99.90;;;;;;5053916;28;20365;-75
2023/01/27 06:08:17;;;;;;;;;;;4.00;99.90;;;;;;5053648;28;19960;-75
2023/01/27 06:10:43;;;;;;;;;;;4.10;99.90;;;;;;5054907;28;20013;-75
2023/01/27 06:13:08;;;;;;;;;;;4.10;99.90;;;;;;5053514;28;19927;-75
2023/01/27 06:15:34;;;;;;;;;;;4.10;99.90;;;;;;5056058;28;19964;-75
2023/01/27 06:17:59;;;;;;;;;;;4.00;99.90;;;;;;5053818;28;20019;-75
2023/01/27 06:20:24;;;;;;;;;;;4.00;99.90;;;;;;5053483;28;19916;-75
2023/01/27 06:22:50;;;;;;;;;;;4.00;99.90;;;;;;5054650;28;20062;-76
2023/01/27 06:25:15;;;;;;;;;;;4.10;99.90;;;;;;5055994;28;19916;-76
2023/01/27 06:27:41;;;;;;;;;;;4.00;99.90;;;;;;5054151;28;20399;-76
2023/01/27 06:30:07;;;;;;;;;;;4.00;99.90;;;;;;5037109;28;19928;-76
2023/01/27 06:32:34;;;;;;;;;;;4.00;99.90;;;;;;5054839;28;20003;-76
2023/01/27 06:35:00;;;;;;;;;;;4.00;99.90;;;;;;5054580;28;20262;-76
2023/01/27 06:37:27;;;;;;;;;;;4.00;99.90;;;;;;5054612;28;19923;-76
2023/01/27 06:39:53;;;;;;;;;;;4.00;99.90;;;;;;5054450;28;20003;-76
2023/01/27 06:42:18;;;;;;;;;;;4.00;99.90;;;;;;5037901;28;19964;-76
2023/01/27 06:44:44;;;;;;;;;;;4.00;99.90;;;;;;5054970;28;19917;-76
2023/01/27 06:47:09;;;;;;;;;;;4.00;99.90;;;;;;5053515;28;19917;-75
2023/01/27 06:49:34;;;;;;;;;;;4.00;99.90;;;;;;5038488;28;20007;-76
2023/01/27 06:52:00;;;;;;;;;;;4.00;99.90;;;;;;5035972;28;20305;-76
2023/01/27 06:54:25;;;;;;;;;;;4.00;99.90;;;;;;5071676;28;19924;-76
2023/01/27 06:56:51;;;;;;;;;;;4.00;99.90;;;;;;5068856;28;19917;-76
2023/01/27 06:59:16;;;;;;;;;;;4.00;99.90;;;;;;5053050;28;20280;-76
2023/01/27 07:01:42;;;;;;;;;;;4.00;99.90;;;;;;5054915;28;20015;-75
2023/01/27 07:04:07;;;;;;;;;;;4.00;99.90;;;;;;5036266;28;19921;-75
2023/01/27 07:06:33;;;;;;;;;;;4.00;99.90;;;;;;5070197;28;19963;-75
2023/01/27 07:08:58;;;;;;;;;;;4.00;99.90;;;;;;5037398;28;20004;-75
2023/01/27 07:11:24;;;;;;;;;;;4.00;99.90;;;;;;5070391;28;19921;-75
2023/01/27 07:13:49;;;;;;;;;;;4.00;99.90;;;;;;5054000;28;20404;-75
2023/01/27 07:16:15;;;;;;;;;;;4.00;99.90;;;;;;5052530;28;19917;-76
2023/01/27 07:18:40;;;;;;;;;;;4.00;99.90;;;;;;5036761;28;19927;-76
2023/01/27 07:21:06;;;;;;;;;;;4.00;99.90;;;;;;5052303;28;20362;-76
2023/01/27 07:23:31;;;;;;;;;;;4.00;99.90;;;;;;5037535;28;19936;-76
2023/01/27 07:25:59;;;;;;;;;;;4.00;99.90;;;;;;5050613;28;19967;-76
2023/01/27 07:28:25;;;;;;;;;;;3.90;99.90;;;;;;5052820;28;19917;-76
2023/01/27 07:30:50;;;;;;;;;;;4.00;99.90;;;;;;5053191;28;19963;-76
2023/01/27 07:33:16;;;;;;;;;;;4.00;99.90;;;;;;5054306;28;19916;-76
2023/01/27 07:35:41;;;;;;;;;;;4.00;99.90;;;;;;5050331;28;19951;-75
2023/01/27 07:38:07;;;;;;;;;;;3.90;99.90;;;;;;5049518;28;20008;-76
2023/01/27 07:40:33;;;;;;;;;;;3.90;99.90;;;;;;5065477;28;19924;-75
2023/01/27 07:43:00;;;;;;;;;;;3.90;99.90;;;;;;5052230;28;20341;-75
2023/01/27 07:45:25;;;;;;;;;;;3.80;99.90;;;;;;5049135;28;19917;-75
2023/01/27 07:47:51;;;;;;;;;;;3.90;99.90;;;;;;5050524;28;19916;-75
2023/01/27 07:50:16;;;;;;;;;;;3.90;99.90;;;;;;5051676;28;19928;-75
2023/01/27 07:52:42;;;;;;;;;;;3.90;99.90;;;;;;5051874;28;20317;-75
2023/01/27 07:55:07;;;;;;;;;;;3.80;99.90;;;;;;5036537;28;19921;-75
2023/01/27 07:57:33;;;;;;;;;;;3.90;99.90;;;;;;5053228;28;20003;-75
2023/01/27 07:59:58;;;;;;;;;;;3.90;99.90;;;;;;5033818;28;19932;-75
2023/01/27 08:02:27;;;;;;;;;;;3.80;99.90;;;;;;5052725;28;19967;-75
2023/01/27 08:04:52;;;;;;;;;;;3.80;99.90;;;;;;5052645;28;19924;-75
2023/01/27 08:07:18;;;;;;;;;;;3.80;99.90;;;;;;5051851;28;19921;-75
2023/01/27 08:09:43;;;;;;;;;;;3.80;99.90;;;;;;5036486;28;19924;-75
2023/01/27 08:12:09;;;;;;;;;;;3.80;99.90;;;;;;5051867;28;19920;-75
2023/01/27 08:14:34;;;;;;;;;;;3.80;99.90;;;;;;5052275;28;20316;-75
2023/01/27 08:17:00;;;;;;;;;;;3.80;99.90;;;;;;5051875;28;19916;-75
2023/01/27 08:19:25;;;;;;;;;;;3.80;99.90;;;;;;5048900;28;20411;-75
2023/01/27 08:21:51;;;;;;;;;;;3.80;99.90;;;;;;5047674;28;19974;-75
2023/01/27 08:24:18;;;;;;;;;;;3.80;99.90;;;;;;5047785;28;19917;-75
2023/01/27 08:26:43;;;;;;;;;;;3.80;99.90;;;;;;5051017;28;19917;-75
2023/01/27 08:29:09;;;;;;;;;;;3.70;99.90;;;;;;5051813;28;19943;-75
2023/01/27 08:31:34;;;;;;;;;;;3.70;99.90;;;;;;5050000;28;19921;-75
2023/01/27 08:34:00;;;;;;;;;;;3.70;99.90;;;;;;5049115;28;19963;-75
2023/01/27 08:36:25;;;;;;;;;;;3.80;99.90;;;;;;5051384;28;19924;-75
2023/01/27 08:38:51;;;;;;;;;;;3.70;99.90;;;;;;5050284;28;19917;-75
2023/01/27 08:41:21;;;;;;;;;;;3.70;99.90;;;;;;5050782;28;19917;-75
2023/01/27 08:43:47;;;;;;;;;;;3.70;99.90;;;;;;5051647;28;19952;-75
2023/01/27 08:46:12;;;;;;;;;;;3.70;99.90;;;;;;5065108;28;19959;-75
2023/01/27 08:48:38;;;;;;;;;;;3.70;99.90;;;;;;5050355;28;19930;-75
2023/01/27 08:51:04;;;;;;;;;;;3.70;99.90;;;;;;5050679;28;19970;-75
2023/01/27 08:53:30;;;;;;;;;;;3.60;99.90;;;;;;5052103;28;19916;-75
2023/01/27 08:55:56;;;;;;;;;;;3.70;99.90;;;;;;5050557;28;19920;-75
2023/01/27 08:58:22;;;;;;;;;;;3.70;99.90;;;;;;5034707;28;20013;-75
2023/01/27 09:00:48;;;;;;;;;;;3.70;99.90;;;;;;5052671;28;19974;-75
2023/01/27 09:03:13;;;;;;;;;;;3.70;99.90;;;;;;5048863;28;20320;-75
2023/01/27 09:05:39;;;;;;;;;;;3.80;99.90;;;;;;5051069;28;19917;-75
2023/01/27 09:08:05;;;;;;;;;;;3.80;99.90;;;;;;5052632;28;19917;-82
2023/01/27 09:10:30;;;;;;;;;;;3.90;99.90;;;;;;5052660;28;19928;-75
2023/01/27 09:12:56;;;;;;;;;;;3.90;99.90;;;;;;5052400;28;19931;-76
2023/01/27 09:15:22;;;;;;;;;;;4.00;99.90;;;;;;5048601;28;19924;-75
2023/01/27 09:17:47;;;;;;;;;;;4.00;99.90;;;;;;5048090;28;19924;-75
2023/01/27 09:20:13;;;;;;;;;;;4.00;99.90;;;;;;5047305;28;19921;-75
2023/01/27 09:22:39;;;;;;;;;;;4.00;99.90;;;;;;5052249;28;20343;-75
2023/01/27 09:25:06;;;;;;;;;;;4.00;99.90;;;;;;5052445;28;19917;-75
2023/01/27 09:27:31;;;;;;;;;;;4.00;99.90;;;;;;5052570;28;20285;-75
2023/01/27 09:29:57;;;;;;;;;;;4.00;99.90;;;;;;5035519;28;19924;-75
2023/01/27 09:32:22;;;;;;;;;;;4.10;99.90;;;;;;5050584;28;19916;-75
2023/01/27 09:34:48;;;;;;;;;;;4.10;99.90;;;;;;5052328;28;19928;-75
2023/01/27 09:37:13;;;;;;;;;;;4.10;99.90;;;;;;5052632;28;20387;-75
2023/01/27 09:39:42;;;;;;;;;;;4.10;99.90;;;;;;5050971;28;19955;-75
2023/01/27 09:42:15;;;;;;;;;;;4.20;99.90;;;;;;5051498;28;20276;-75
2023/01/27 09:44:55;;;;;;;;;;;4.20;99.90;;;;;;5052219;28;19916;-75
2023/01/27 09:47:45;;;;;;;;;;;4.30;99.90;;;;;;5051026;28;19963;-75
2023/01/27 09:50:36;;;;;;;;;;;4.30;99.90;;;;;;5033595;28;20030;-75
2023/01/27 09:53:02;;;;;;;;;;;4.30;99.90;;;;;;5035857;28;19916;-74
2023/01/27 09:55:27;;;;;;;;;;;4.30;99.90;;;;;;5035763;28;20380;-74
2023/01/27 09:58:06;;;;;;;;;;;4.40;99.90;;;;;;5034061;28;19916;-74
2023/01/27 10:00:38;;;;;;;;;;;4.40;99.90;;;;;;5049790;28;20280;-74
2023/01/27 10:03:06;;;;;;;;;;;4.50;99.90;;;;;;5051290;28;20286;-75
2023/01/27 10:05:51;;;;;;;;;;;4.50;99.90;;;;;;5051939;28;19921;-76
2023/01/27 10:08:22;;;;;;;;;;;4.60;99.90;;;;;;5068812;28;19916;-75
2023/01/27 10:11:03;;;;;;;;;;;4.50;99.90;;;;;;5068503;28;20381;-75
2023/01/27 10:13:47;;;;;;;;;;;4.50;99.90;;;;;;5051933;28;19921;-75
2023/01/27 10:16:12;;;;;;;;;;;4.50;99.90;;;;;;5068561;28;20376;-75
2023/01/27 10:18:57;;;;;;;;;;;4.50;99.90;;;;;;5068375;28;19932;-75
2023/01/27 10:21:44;;;;;;;;;;;4.60;99.90;;;;;;5051743;28;19962;-75
2023/01/27 10:24:34;;;;;;;;;;;4.50;99.90;;;;;;5068525;28;19916;-75
2023/01/27 10:27:07;;;;;;;;;;;4.50;99.90;;;;;;5068330;28;19916;-75
2023/01/27 10:29:37;;;;;;;;;;;4.50;99.90;;;;;;5055459;28;19916;-75
2023/01/27 10:32:15;;;;;;;;;;;4.50;99.90;;;;;;5038699;28;19920;-75
2023/01/27 10:34:56;;;;;;;;;;;4.50;99.90;;;;;;5055498;28;19920;-75
2023/01/27 10:37:35;;;;;;;;;;;4.70;99.90;;;;;;5055525;28;19940;-76
2023/01/27 10:40:03;;;;;;;;;;;4.70;99.90;;;;;;5055616;28;19917;-75
2023/01/27 10:42:32;;;;;;;;;;;4.60;99.90;;;;;;5055236;28;19970;-75
2023/01/27 10:45:07;;;;;;;;;;;4.70;99.90;;;;;;5038831;28;19960;-75
2023/01/27 10:47:41;;;;;;;;;;;4.70;99.90;;;;;;5055130;28;19916;-75
2023/01/27 10:50:14;;;;;;;;;;;4.70;99.90;;;;;;5038425;28;19960;-76
2023/01/27 10:52:55;;;;;;;;;;;4.70;99.90;;;;;;5038369;28;20389;-75
2023/01/27 10:55:26;;;;;;;;;;;4.60;99.90;;;;;;5038562;28;20289;-75
2023/01/27 10:58:00;;;;;;;;;;;4.70;99.90;;;;;;5038423;28;19995;-76
2023/01/27 11:00:26;;;;;;;;;;;4.70;99.90;;;;;;5038378;28;19916;-75
2023/01/27 11:02:54;;;;;;;;;;;4.70;99.90;;;;;;5037666;28;19924;-76
2023/01/27 11:05:23;;;;;;;;;;;4.70;99.90;;;;;;5037453;28;19924;-75
2023/01/27 11:07:55;;;;;;;;;;;4.70;99.90;;;;;;5055034;28;19939;-75
2023/01/27 11:10:21;;;;;;;;;;;4.70;99.90;;;;;;5071369;28;19964;-75
2023/01/27 11:12:48;;;;;;;;;;;4.60;99.90;;;;;;5054657;28;19951;-75
2023/01/27 11:15:14;;;;;;;;;;;4.60;99.90;;;;;;5037282;28;19966;-75
2023/01/27 11:17:42;;;;;;;;;;;4.60;99.90;;;;;;5054445;28;20003;-76
2023/01/27 11:20:10;;;;;;;;;;;4.80;99.90;;;;;;5054417;28;19925;-75
2023/01/27 11:22:41;;;;;;;;;;;4.60;99.90;;;;;;5037964;28;20511;-75
2023/01/27 11:25:15;;;;;;;;;;;4.60;99.90;;;;;;5037972;28;20031;-75
2023/01/27 11:27:54;;;;;;;;;;;4.60;99.90;;;;;;5038141;28;20261;-75
2023/01/27 11:30:26;;;;;;;;;;;4.60;99.90;;;;;;5037927;28;20412;-75
2023/01/27 11:33:02;;;;;;;;;;;4.60;99.90;;;;;;5054718;28;20258;-75
2023/01/27 11:35:27;;;;;;;;;;;4.70;99.90;;;;;;5036642;28;19916;-75
2023/01/27 11:37:53;;;;;;;;;;;4.70;99.90;;;;;;5053723;28;20281;-76
2023/01/27 11:40:25;;;;;;;;;;;4.60;99.90;;;;;;5037609;28;19924;-76
2023/01/27 11:42:50;;;;;;;;;;;4.60;99.90;;;;;;5037477;28;19916;-75
2023/01/27 11:45:18;;;;;;;;;;;4.60;99.90;;;;;;5054103;28;20011;-76
2023/01/27 11:47:45;;;;;;;;;;;4.70;99.90;;;;;;5054232;28;19979;-76
2023/01/27 11:50:15;;;;;;;;;;;4.70;99.90;;;;;;5037709;28;19939;-76
2023/01/27 11:52:41;;;;;;;;;;;4.70;99.90;;;;;;5037344;28;20381;-75
2023/01/27 11:55:14;;;;;;;;;;;4.60;99.90;;;;;;5037314;28;19916;-76
2023/01/27 11:57:41;;;;;;;;;;;4.60;99.90;;;;;;5053721;28;19920;-76
2023/01/27 12:00:24;;;;;;;;;;;4.60;99.90;;;;;;5053890;28;19995;-75
2023/01/27 12:03:10;;;;;;;;;;;4.60;99.90;;;;;;5035778;28;20291;-76
2023/01/27 12:05:39;;;;;;;;;;;4.60;99.90;;;;;;5053795;28;19917;-75
2023/01/27 12:08:05;;;;;;;;;;;4.50;99.90;;;;;;5053610;28;19924;-76
2023/01/27 12:10:32;;;;;;;;;;;4.50;99.90;;;;;;5053738;28;20301;-76
2023/01/27 12:13:01;;;;;;;;;;;4.50;99.90;;;;;;5053570;28;19936;-76
2023/01/27 12:15:28;;;;;;;;;;;4.50;99.90;;;;;;5037091;28;19923;-76
2023/01/27 12:18:02;;;;;;;;;;;4.60;99.90;;;;;;5053261;28;19999;-76
2023/01/27 12:20:37;;;;;;;;;;;4.50;99.90;;;;;;5051413;28;20385;-75
2023/01/27 12:23:15;;;;;;;;;;;4.60;99.90;;;;;;5046625;28;19917;-75
2023/01/27 12:25:51;;;;;;;;;;;4.60;99.90;;;;;;5049568;28;19917;-75
2023/01/27 12:28:20;;;;;;;;;;;4.60;99.90;;;;;;5053279;28;19916;-75
2023/01/27 12:30:46;;;;;;;;;;;4.60;99.90;;;;;;5035629;28;20004;-75
2023/01/27 12:33:17;;;;;;;;;;;4.70;99.90;;;;;;5050566;28;19917;-74
2023/01/27 12:35:46;;;;;;;;;;;4.80;99.90;;;;;;5036857;28;19923;-75
2023/01/27 12:38:13;;;;;;;;;;;4.90;99.90;;;;;;5035696;28;19999;-75
2023/01/27 12:40:41;;;;;;;;;;;4.90;99.90;;;;;;5051105;28;19982;-74
2023/01/27 12:43:13;;;;;;;;;;;4.90;99.90;;;;;;5060584;28;19936;-75
2023/01/27 12:45:40;;;;;;;;;;;5.00;99.90;;;;;;5051946;28;19917;-75
2023/01/27 12:48:11;;;;;;;;;;;5.10;99.90;;;;;;5036229;28;19916;-75
2023/01/27 12:50:39;;;;;;;;;;;5.20;99.90;;;;;;5036511;28;19998;-74
2023/01/27 12:53:08;;;;;;;;;;;5.30;99.90;;;;;;5051784;28;20042;-75
2023/01/27 12:55:35;;;;;;;;;;;5.30;99.90;;;;;;5052756;28;20050;-75
2023/01/27 12:58:01;;;;;;;;;;;5.30;99.90;;;;;;5035998;28;19916;-75
2023/01/27 13:00:28;;;;;;;;;;;5.40;99.90;;;;;;5036066;28;19917;-74
2023/01/27 13:03:00;;;;;;;;;;;5.20;99.90;;;;;;5033454;28;20440;-75
2023/01/27 13:05:26;;;;;;;;;;;5.20;99.90;;;;;;5031965;28;19924;-75
2023/01/27 13:07:52;;;;;;;;;;;5.20;99.90;;;;;;5052320;28;19917;-75
2023/01/27 13:10:21;;;;;;;;;;;5.20;99.90;;;;;;5069187;28;19920;-74
2023/01/27 13:12:49;;;;;;;;;;;5.10;99.90;;;;;;5032231;28;20332;-75
2023/01/27 13:15:19;;;;;;;;;;;5.10;99.90;;;;;;5062267;28;19924;-75
2023/01/27 13:17:47;;;;;;;;;;;5.20;99.90;;;;;;5036288;28;20426;-74
2023/01/27 13:20:27;;;;;;;;;;;5.10;99.90;;;;;;5052156;28;19920;-74
2023/01/27 13:22:59;;;;;;;;;;;5.10;99.90;;;;;;5050026;28;19920;-74
2023/01/27 13:25:36;;;;;;;;;;;5.20;99.90;;;;;;5045657;28;19946;-75
2023/01/27 13:28:04;;;;;;;;;;;5.20;99.90;;;;;;5067888;28;19917;-75
2023/01/27 13:30:34;;;;;;;;;;;5.20;99.90;;;;;;5052143;28;20372;-75
2023/01/27 13:33:02;;;;;;;;;;;5.30;99.90;;;;;;5052005;28;19917;-75
2023/01/27 13:35:40;;;;;;;;;;;5.30;99.90;;;;;;5036248;28;19944;-75
2023/01/27 13:38:20;;;;;;;;;;;5.20;99.90;;;;;;5049999;28;19966;-75
2023/01/27 13:40:46;;;;;;;;;;;5.20;99.90;;;;;;5050628;28;19917;-75
2023/01/27 13:43:34;;;;;;;;;;;5.30;99.90;;;;;;5047196;28;19917;-74
2023/01/27 13:46:14;;;;;;;;;;;5.20;99.90;;;;;;5031463;28;19916;-75
2023/01/27 13:48:43;;;;;;;;;;;5.20;99.90;;;;;;5041546;28;19917;-75
2023/01/27 13:51:10;;;;;;;;;;;5.20;99.90;;;;;;5037975;28;19929;-74
2023/01/27 13:53:36;;;;;;;;;;;5.20;99.90;;;;;;5022412;28;19916;-75
2023/01/27 13:56:08;;;;;;;;;;;5.10;99.90;;;;;;5031683;28;20328;-75
2023/01/27 13:58:57;;;;;;;;;;;5.20;99.90;;;;;;5047474;28;20003;-75
2023/01/27 14:01:22;;;;;;;;;;;5.20;99.90;;;;;;5024589;28;19917;-75
2023/01/27 14:04:06;;;;;;;;;;;5.20;99.90;;;;;;5055757;28;19927;-75
2023/01/27 14:06:51;;;;;;;;;;;5.20;99.90;;;;;;5060049;28;19917;-75
2023/01/27 14:09:26;;;;;;;;;;;5.10;99.90;;;;;;5037756;28;19917;-75
2023/01/27 14:11:58;;;;;;;;;;;5.10;99.90;;;;;;5050701;28;19928;-76
2023/01/27 14:14:30;;;;;;;;;;;4.90;99.90;;;;;;5038821;28;19917;-74
2023/01/27 14:17:05;;;;;;;;;;;4.90;99.90;;;;;;5039076;28;19941;-74
2023/01/27 14:19:38;;;;;;;;;;;5.00;99.90;;;;;;5055180;28;19920;-74
2023/01/27 14:22:10;;;;;;;;;;;4.90;99.90;;;;;;5054785;28;20258;-74
2023/01/27 14:24:54;;;;;;;;;;;4.90;99.90;;;;;;5055541;28;20391;-73
2023/01/27 14:27:23;;;;;;;;;;;4.80;99.90;;;;;;5055369;28;19960;-74
2023/01/27 14:30:07;;;;;;;;;;;4.90;99.90;;;;;;5054979;28;20377;-73
2023/01/27 14:33:12;;;;;;;;;;;4.70;99.90;;;;;;5055065;28;19920;-74
2023/01/27 14:35:44;;;;;;;;;;;4.80;99.90;;;;;;5017552;28;20015;-74
2023/01/27 14:38:14;;;;;;;;;;;4.80;99.90;;;;;;5001319;28;19917;-73
2023/01/27 14:40:40;;;;;;;;;;;4.90;99.90;;;;;;5034732;28;19921;-74
2023/01/27 14:43:24;;;;;;;;;;;5.00;99.90;;;;;;5053718;28;19917;-74
2023/01/27 14:45:54;;;;;;;;;;;4.80;99.90;;;;;;5055459;28;19916;-74
2023/01/27 14:48:42;;;;;;;;;;;4.70;99.90;;;;;;5052264;28;19922;-74
2023/01/27 14:51:16;;;;;;;;;;;4.80;99.90;;;;;;5037001;28;20312;-69
2023/01/27 14:53:56;;;;;;;;;;;4.70;99.90;;;;;;5050198;28;21498;-73
2023/01/27 14:56:21;;;;;;;;;;;4.70;99.90;;;;;;5053435;28;19916;-72
2023/01/27 14:58:52;;;;;;;;;;;4.60;99.90;;;;;;5035704;28;20266;-73
2023/01/27 15:01:35;;;;;;;;;;;4.50;99.90;;;;;;5032030;28;19928;-73
2023/01/27 15:04:15;;;;;;;;;;;4.60;99.90;;;;;;5053952;28;19924;-72
2023/01/27 15:06:46;;;;;;;;;;;4.50;99.90;;;;;;5054878;28;19923;-73
2023/01/27 15:09:16;;;;;;;;;;;4.70;99.90;;;;;;5038019;28;19971;-77
2023/01/27 15:11:42;;;;;;;;;;;4.60;99.90;;;;;;5066752;28;19927;-75
2023/01/27 15:14:27;;;;;;;;;;;4.60;99.90;;;;;;5062271;28;19920;-73